sensor_id;sensor_type;location;lat;lon;timestamp;P1;durP1;ratioP1;P2;durP2;ratioP2
8104;SDS011;4095;48.942;9.104;2023-02-01T00:01:51;2.53;;;1.80;;
8104;SDS011;4095;48.942;9.104;2023-02-01T00:04:16;2.03;;;1.73;;
8104;SDS011;4095;48.942;9.104;2023-02-01T00:06:42;2.10;;;1.70;;
8104;SDS011;4095;48.942;9.104;2023-02-01T00:09:07;1.40;;;1.30;;
8104;SDS011;4095;48.942;9.104;2023-02-01T00:11:33;1.70;;;1.60;;
8104;SDS011;4095;48.942;9.104;2023-02-01T00:13:59;1.80;;;1.70;;
8104;SDS011;4095;48.942;9.104;2023-02-01T00:16:26;2.70;;;1.80;;
8104;SDS011;4095;48.942;9.104;2023-02-01T00:19:03;1.83;;;1.73;;
8104;SDS011;4095;48.942;9.104;2023-02-01T00:21:31;1.97;;;1.63;;
8104;SDS011;4095;48.942;9.104;2023-02-01T00:23:57;2.90;;;2.10;;
8104;SDS011;4095;48.942;9.104;2023-02-01T00:28:56;3.50;;;2.50;;
8104;SDS011;4095;48.942;9.104;2023-02-01T00:31:22;3.80;;;2.90;;
8104;SDS011;4095;48.942;9.104;2023-02-01T00:33:47;2.93;;;2.40;;
8104;SDS011;4095;48.942;9.104;2023-02-01T00:36:13;3.37;;;2.20;;
8104;SDS011;4095;48.942;9.104;2023-02-01T00:38:39;2.57;;;2.17;;
8104;SDS011;4095;48.942;9.104;2023-02-01T00:41:06;4.37;;;2.30;;
8104;SDS011;4095;48.942;9.104;2023-02-01T00:43:35;2.37;;;1.80;;
8104;SDS011;4095;48.942;9.104;2023-02-01T00:46:00;2.60;;;2.10;;
8104;SDS011;4095;48.942;9.104;2023-02-01T00:48:27;2.40;;;2.10;;
8104;SDS011;4095;48.942;9.104;2023-02-01T00:50:53;3.20;;;2.00;;
8104;SDS011;4095;48.942;9.104;2023-02-01T00:53:18;2.00;;;1.80;;
8104;SDS011;4095;48.942;9.104;2023-02-01T00:55:44;2.77;;;1.93;;
8104;SDS011;4095;48.942;9.104;2023-02-01T00:58:11;2.63;;;2.23;;
8104;SDS011;4095;48.942;9.104;2023-02-01T01:00:37;2.10;;;1.80;;
8104;SDS011;4095;48.942;9.104;2023-02-01T01:03:02;2.00;;;1.80;;
8104;SDS011;4095;48.942;9.104;2023-02-01T01:05:42;2.60;;;1.57;;
8104;SDS011;4095;48.942;9.104;2023-02-01T01:08:09;1.83;;;1.70;;
8104;SDS011;4095;48.942;9.104;2023-02-01T01:10:35;1.53;;;1.43;;
8104;SDS011;4095;48.942;9.104;2023-02-01T01:13:00;2.43;;;1.90;;
8104;SDS011;4095;48.942;9.104;2023-02-01T01:15:26;2.90;;;1.90;;
8104;SDS011;4095;48.942;9.104;2023-02-01T01:17:51;2.00;;;1.50;;
8104;SDS011;4095;48.942;9.104;2023-02-01T01:20:17;2.77;;;1.90;;
8104;SDS011;4095;48.942;9.104;2023-02-01T01:22:46;2.37;;;1.80;;
8104;SDS011;4095;48.942;9.104;2023-02-01T01:25:15;2.10;;;1.70;;
8104;SDS011;4095;48.942;9.104;2023-02-01T01:27:41;2.03;;;1.80;;
8104;SDS011;4095;48.942;9.104;2023-02-01T01:30:07;1.97;;;1.50;;
8104;SDS011;4095;48.942;9.104;2023-02-01T01:32:35;1.97;;;1.77;;
8104;SDS011;4095;48.942;9.104;2023-02-01T01:35:13;2.57;;;1.90;;
8104;SDS011;4095;48.942;9.104;2023-02-01T01:37:39;1.73;;;1.50;;
8104;SDS011;4095;48.942;9.104;2023-02-01T01:40:08;1.87;;;1.57;;
8104;SDS011;4095;48.942;9.104;2023-02-01T01:42:37;2.67;;;1.87;;
8104;SDS011;4095;48.942;9.104;2023-02-01T01:47:53;1.90;;;1.70;;
8104;SDS011;4095;48.942;9.104;2023-02-01T01:50:24;1.77;;;1.67;;
8104;SDS011;4095;48.942;9.104;2023-02-01T01:52:56;1.83;;;1.70;;
8104;SDS011;4095;48.942;9.104;2023-02-01T01:55:26;1.50;;;1.40;;
8104;SDS011;4095;48.942;9.104;2023-02-01T01:57:57;1.93;;;1.73;;
8104;SDS011;4095;48.942;9.104;2023-02-01T02:00:26;2.90;;;1.83;;
8104;SDS011;4095;48.942;9.104;2023-02-01T02:02:57;1.73;;;1.63;;
8104;SDS011;4095;48.942;9.104;2023-02-01T02:05:28;2.90;;;1.80;;
8104;SDS011;4095;48.942;9.104;2023-02-01T02:07:56;1.80;;;1.70;;
8104;SDS011;4095;48.942;9.104;2023-02-01T02:10:25;1.80;;;1.70;;
8104;SDS011;4095;48.942;9.104;2023-02-01T02:13:12;2.20;;;1.80;;
8104;SDS011;4095;48.942;9.104;2023-02-01T02:15:41;1.73;;;1.50;;
8104;SDS011;4095;48.942;9.104;2023-02-01T02:18:15;2.90;;;1.90;;
8104;SDS011;4095;48.942;9.104;2023-02-01T02:34:26;2.33;;;2.10;;
8104;SDS011;4095;48.942;9.104;2023-02-01T02:37:02;2.60;;;2.10;;
8104;SDS011;4095;48.942;9.104;2023-02-01T02:42:29;3.13;;;2.13;;
8104;SDS011;4095;48.942;9.104;2023-02-01T02:45:21;2.17;;;1.83;;
8104;SDS011;4095;48.942;9.104;2023-02-01T02:51:20;2.17;;;1.80;;
8104;SDS011;4095;48.942;9.104;2023-02-01T02:54:30;2.20;;;1.80;;
8104;SDS011;4095;48.942;9.104;2023-02-01T02:57:30;1.83;;;1.67;;
8104;SDS011;4095;48.942;9.104;2023-02-01T03:00:18;2.53;;;2.00;;
8104;SDS011;4095;48.942;9.104;2023-02-01T03:03:05;2.00;;;1.80;;
8104;SDS011;4095;48.942;9.104;2023-02-01T03:05:50;3.00;;;1.97;;
8104;SDS011;4095;48.942;9.104;2023-02-01T03:08:26;1.70;;;1.60;;
8104;SDS011;4095;48.942;9.104;2023-02-01T03:10:55;2.20;;;1.73;;
8104;SDS011;4095;48.942;9.104;2023-02-01T03:21:18;2.43;;;1.80;;
8104;SDS011;4095;48.942;9.104;2023-02-01T03:23:47;1.87;;;1.53;;
8104;SDS011;4095;48.942;9.104;2023-02-01T03:26:16;1.80;;;1.70;;
8104;SDS011;4095;48.942;9.104;2023-02-01T03:28:45;2.37;;;1.70;;
8104;SDS011;4095;48.942;9.104;2023-02-01T03:31:18;1.40;;;1.30;;
8104;SDS011;4095;48.942;9.104;2023-02-01T03:33:44;1.83;;;1.60;;
8104;SDS011;4095;48.942;9.104;2023-02-01T03:36:22;1.97;;;1.70;;
8104;SDS011;4095;48.942;9.104;2023-02-01T03:39:23;1.73;;;1.40;;
8104;SDS011;4095;48.942;9.104;2023-02-01T03:41:58;1.43;;;1.33;;
8104;SDS011;4095;48.942;9.104;2023-02-01T03:44:29;1.60;;;1.50;;
8104;SDS011;4095;48.942;9.104;2023-02-01T03:49:40;2.73;;;1.70;;
8104;SDS011;4095;48.942;9.104;2023-02-01T03:52:23;3.17;;;1.77;;
8104;SDS011;4095;48.942;9.104;2023-02-01T03:54:55;1.40;;;1.30;;
8104;SDS011;4095;48.942;9.104;2023-02-01T03:57:25;1.73;;;1.60;;
8104;SDS011;4095;48.942;9.104;2023-02-01T03:59:54;1.87;;;1.77;;
8104;SDS011;4095;48.942;9.104;2023-02-01T04:02:33;2.20;;;1.57;;
8104;SDS011;4095;48.942;9.104;2023-02-01T04:04:59;2.47;;;1.70;;
8104;SDS011;4095;48.942;9.104;2023-02-01T04:07:24;2.07;;;1.80;;
8104;SDS011;4095;48.942;9.104;2023-02-01T04:09:50;2.80;;;1.63;;
8104;SDS011;4095;48.942;9.104;2023-02-01T04:12:15;1.77;;;1.60;;
8104;SDS011;4095;48.942;9.104;2023-02-01T04:14:41;2.40;;;1.80;;
8104;SDS011;4095;48.942;9.104;2023-02-01T04:17:06;1.97;;;1.57;;
8104;SDS011;4095;48.942;9.104;2023-02-01T04:19:32;2.40;;;1.53;;
8104;SDS011;4095;48.942;9.104;2023-02-01T04:21:58;2.03;;;1.83;;
8104;SDS011;4095;48.942;9.104;2023-02-01T04:24:23;2.33;;;1.60;;
8104;SDS011;4095;48.942;9.104;2023-02-01T04:26:49;2.30;;;1.90;;
8104;SDS011;4095;48.942;9.104;2023-02-01T04:29:14;2.23;;;1.57;;
8104;SDS011;4095;48.942;9.104;2023-02-01T04:31:40;3.20;;;1.90;;
8104;SDS011;4095;48.942;9.104;2023-02-01T04:34:06;3.27;;;1.97;;
8104;SDS011;4095;48.942;9.104;2023-02-01T04:36:31;1.93;;;1.70;;
8104;SDS011;4095;48.942;9.104;2023-02-01T04:38:57;2.20;;;2.00;;
8104;SDS011;4095;48.942;9.104;2023-02-01T04:41:22;3.73;;;1.70;;
8104;SDS011;4095;48.942;9.104;2023-02-01T04:43:49;2.60;;;1.73;;
8104;SDS011;4095;48.942;9.104;2023-02-01T04:46:16;2.57;;;1.97;;
8104;SDS011;4095;48.942;9.104;2023-02-01T04:48:41;3.73;;;2.00;;
8104;SDS011;4095;48.942;9.104;2023-02-01T04:51:07;3.03;;;1.57;;
8104;SDS011;4095;48.942;9.104;2023-02-01T04:53:33;2.37;;;1.83;;
8104;SDS011;4095;48.942;9.104;2023-02-01T04:55:59;2.53;;;1.70;;
8104;SDS011;4095;48.942;9.104;2023-02-01T04:58:24;1.60;;;1.50;;
8104;SDS011;4095;48.942;9.104;2023-02-01T05:00:50;2.60;;;1.60;;
8104;SDS011;4095;48.942;9.104;2023-02-01T05:03:16;2.43;;;1.70;;
8104;SDS011;4095;48.942;9.104;2023-02-01T05:05:42;2.23;;;1.70;;
8104;SDS011;4095;48.942;9.104;2023-02-01T05:08:08;2.23;;;1.57;;
8104;SDS011;4095;48.942;9.104;2023-02-01T05:10:33;1.67;;;1.50;;
8104;SDS011;4095;48.942;9.104;2023-02-01T05:12:59;5.10;;;2.03;;
8104;SDS011;4095;48.942;9.104;2023-02-01T05:15:43;2.27;;;1.80;;
8104;SDS011;4095;48.942;9.104;2023-02-01T05:18:11;2.60;;;1.60;;
8104;SDS011;4095;48.942;9.104;2023-02-01T05:20:37;2.13;;;1.53;;
8104;SDS011;4095;48.942;9.104;2023-02-01T05:23:02;2.23;;;2.00;;
8104;SDS011;4095;48.942;9.104;2023-02-01T05:25:28;2.33;;;1.93;;
8104;SDS011;4095;48.942;9.104;2023-02-01T05:27:53;2.37;;;2.03;;
8104;SDS011;4095;48.942;9.104;2023-02-01T05:30:19;3.13;;;2.10;;
8104;SDS011;4095;48.942;9.104;2023-02-01T05:32:44;2.53;;;1.80;;
8104;SDS011;4095;48.942;9.104;2023-02-01T05:35:10;2.00;;;1.80;;
8104;SDS011;4095;48.942;9.104;2023-02-01T05:37:36;2.07;;;1.80;;
8104;SDS011;4095;48.942;9.104;2023-02-01T05:40:01;4.03;;;1.93;;
8104;SDS011;4095;48.942;9.104;2023-02-01T05:42:27;3.53;;;2.10;;
8104;SDS011;4095;48.942;9.104;2023-02-01T05:44:52;4.00;;;1.90;;
8104;SDS011;4095;48.942;9.104;2023-02-01T05:47:18;2.97;;;1.80;;
8104;SDS011;4095;48.942;9.104;2023-02-01T05:49:45;2.20;;;1.90;;
8104;SDS011;4095;48.942;9.104;2023-02-01T05:52:11;2.77;;;1.70;;
8104;SDS011;4095;48.942;9.104;2023-02-01T05:54:36;2.63;;;1.67;;
8104;SDS011;4095;48.942;9.104;2023-02-01T05:57:02;1.60;;;1.50;;
8104;SDS011;4095;48.942;9.104;2023-02-01T05:59:28;3.23;;;1.87;;
8104;SDS011;4095;48.942;9.104;2023-02-01T06:01:54;2.63;;;1.80;;
8104;SDS011;4095;48.942;9.104;2023-02-01T06:04:20;2.27;;;2.00;;
8104;SDS011;4095;48.942;9.104;2023-02-01T06:06:45;1.77;;;1.60;;
8104;SDS011;4095;48.942;9.104;2023-02-01T06:09:11;2.90;;;1.90;;
8104;SDS011;4095;48.942;9.104;2023-02-01T06:11:36;2.70;;;2.03;;
8104;SDS011;4095;48.942;9.104;2023-02-01T06:14:02;2.10;;;1.77;;
8104;SDS011;4095;48.942;9.104;2023-02-01T06:16:27;3.20;;;2.00;;
8104;SDS011;4095;48.942;9.104;2023-02-01T06:18:53;4.03;;;2.23;;
8104;SDS011;4095;48.942;9.104;2023-02-01T06:21:19;3.10;;;2.30;;
8104;SDS011;4095;48.942;9.104;2023-02-01T06:23:51;4.67;;;2.80;;
8104;SDS011;4095;48.942;9.104;2023-02-01T06:26:18;4.13;;;2.90;;
8104;SDS011;4095;48.942;9.104;2023-02-01T06:28:44;3.83;;;2.80;;
8104;SDS011;4095;48.942;9.104;2023-02-01T06:31:09;3.57;;;2.87;;
8104;SDS011;4095;48.942;9.104;2023-02-01T06:33:35;5.83;;;2.90;;
8104;SDS011;4095;48.942;9.104;2023-02-01T06:36:03;4.17;;;3.30;;
8104;SDS011;4095;48.942;9.104;2023-02-01T06:38:30;4.93;;;3.00;;
8104;SDS011;4095;48.942;9.104;2023-02-01T06:40:56;5.77;;;3.60;;
8104;SDS011;4095;48.942;9.104;2023-02-01T06:43:23;6.07;;;3.20;;
8104;SDS011;4095;48.942;9.104;2023-02-01T06:45:50;6.97;;;3.53;;
8104;SDS011;4095;48.942;9.104;2023-02-01T06:48:16;4.83;;;3.60;;
8104;SDS011;4095;48.942;9.104;2023-02-01T06:50:42;6.70;;;3.90;;
8104;SDS011;4095;48.942;9.104;2023-02-01T06:53:07;5.77;;;3.70;;
8104;SDS011;4095;48.942;9.104;2023-02-01T06:55:33;6.17;;;3.90;;
8104;SDS011;4095;48.942;9.104;2023-02-01T06:57:59;7.27;;;4.03;;
8104;SDS011;4095;48.942;9.104;2023-02-01T07:00:26;5.73;;;3.63;;
8104;SDS011;4095;48.942;9.104;2023-02-01T07:02:51;7.23;;;3.70;;
8104;SDS011;4095;48.942;9.104;2023-02-01T07:05:17;7.37;;;3.77;;
8104;SDS011;4095;48.942;9.104;2023-02-01T07:07:43;6.23;;;3.83;;
8104;SDS011;4095;48.942;9.104;2023-02-01T07:10:09;7.73;;;4.70;;
8104;SDS011;4095;48.942;9.104;2023-02-01T07:12:35;7.30;;;4.10;;
8104;SDS011;4095;48.942;9.104;2023-02-01T07:15:01;7.83;;;4.20;;
8104;SDS011;4095;48.942;9.104;2023-02-01T07:17:27;8.73;;;5.20;;
8104;SDS011;4095;48.942;9.104;2023-02-01T07:19:54;8.27;;;4.30;;
8104;SDS011;4095;48.942;9.104;2023-02-01T07:22:20;7.33;;;4.47;;
8104;SDS011;4095;48.942;9.104;2023-02-01T07:24:46;8.07;;;4.47;;
8104;SDS011;4095;48.942;9.104;2023-02-01T07:27:12;9.20;;;4.10;;
8104;SDS011;4095;48.942;9.104;2023-02-01T07:29:38;7.17;;;4.40;;
8104;SDS011;4095;48.942;9.104;2023-02-01T07:32:03;8.13;;;5.00;;
8104;SDS011;4095;48.942;9.104;2023-02-01T07:34:29;7.93;;;4.67;;
8104;SDS011;4095;48.942;9.104;2023-02-01T07:36:55;7.00;;;4.60;;
8104;SDS011;4095;48.942;9.104;2023-02-01T07:39:21;7.53;;;4.43;;
8104;SDS011;4095;48.942;9.104;2023-02-01T07:41:47;11.67;;;5.10;;
8104;SDS011;4095;48.942;9.104;2023-02-01T07:44:12;10.03;;;4.93;;
8104;SDS011;4095;48.942;9.104;2023-02-01T07:46:38;9.20;;;4.40;;
8104;SDS011;4095;48.942;9.104;2023-02-01T07:49:04;8.63;;;4.80;;
8104;SDS011;4095;48.942;9.104;2023-02-01T07:51:30;8.77;;;5.17;;
8104;SDS011;4095;48.942;9.104;2023-02-01T07:53:56;8.80;;;4.33;;
8104;SDS011;4095;48.942;9.104;2023-02-01T07:56:21;9.53;;;5.17;;
8104;SDS011;4095;48.942;9.104;2023-02-01T07:58:48;10.07;;;5.57;;
8104;SDS011;4095;48.942;9.104;2023-02-01T08:01:18;7.37;;;4.90;;
8104;SDS011;4095;48.942;9.104;2023-02-01T08:03:47;8.93;;;4.83;;
8104;SDS011;4095;48.942;9.104;2023-02-01T08:06:14;6.93;;;4.23;;
8104;SDS011;4095;48.942;9.104;2023-02-01T08:08:40;13.40;;;4.63;;
8104;SDS011;4095;48.942;9.104;2023-02-01T08:11:06;8.57;;;4.37;;
8104;SDS011;4095;48.942;9.104;2023-02-01T08:13:35;11.33;;;4.83;;
8104;SDS011;4095;48.942;9.104;2023-02-01T08:16:02;6.50;;;3.87;;
8104;SDS011;4095;48.942;9.104;2023-02-01T08:18:29;9.13;;;4.23;;
8104;SDS011;4095;48.942;9.104;2023-02-01T08:20:55;8.63;;;3.90;;
8104;SDS011;4095;48.942;9.104;2023-02-01T08:23:21;10.60;;;4.13;;
8104;SDS011;4095;48.942;9.104;2023-02-01T08:25:48;7.93;;;3.97;;
8104;SDS011;4095;48.942;9.104;2023-02-01T08:28:13;9.73;;;3.97;;
8104;SDS011;4095;48.942;9.104;2023-02-01T08:30:39;8.33;;;3.73;;
8104;SDS011;4095;48.942;9.104;2023-02-01T08:33:07;7.77;;;3.63;;
8104;SDS011;4095;48.942;9.104;2023-02-01T08:35:37;9.57;;;4.10;;
8104;SDS011;4095;48.942;9.104;2023-02-01T08:38:03;9.53;;;4.30;;
8104;SDS011;4095;48.942;9.104;2023-02-01T08:40:29;6.37;;;4.00;;
8104;SDS011;4095;48.942;9.104;2023-02-01T08:42:56;7.87;;;3.50;;
8104;SDS011;4095;48.942;9.104;2023-02-01T08:45:25;11.97;;;4.20;;
8104;SDS011;4095;48.942;9.104;2023-02-01T08:47:54;8.10;;;3.70;;
8104;SDS011;4095;48.942;9.104;2023-02-01T08:50:21;7.50;;;3.57;;
8104;SDS011;4095;48.942;9.104;2023-02-01T08:52:47;7.30;;;3.37;;
8104;SDS011;4095;48.942;9.104;2023-02-01T08:55:13;7.50;;;3.40;;
8104;SDS011;4095;48.942;9.104;2023-02-01T08:57:39;7.93;;;3.70;;
8104;SDS011;4095;48.942;9.104;2023-02-01T09:00:07;8.33;;;4.07;;
8104;SDS011;4095;48.942;9.104;2023-02-01T09:02:35;8.50;;;3.57;;
8104;SDS011;4095;48.942;9.104;2023-02-01T09:05:01;9.77;;;3.70;;
8104;SDS011;4095;48.942;9.104;2023-02-01T09:07:26;9.00;;;3.63;;
8104;SDS011;4095;48.942;9.104;2023-02-01T09:09:52;6.40;;;3.30;;
8104;SDS011;4095;48.942;9.104;2023-02-01T09:12:19;7.97;;;3.30;;
8104;SDS011;4095;48.942;9.104;2023-02-01T09:14:45;8.13;;;3.50;;
8104;SDS011;4095;48.942;9.104;2023-02-01T09:17:11;8.60;;;3.17;;
8104;SDS011;4095;48.942;9.104;2023-02-01T09:19:38;6.97;;;3.60;;
8104;SDS011;4095;48.942;9.104;2023-02-01T09:22:04;12.13;;;3.70;;
8104;SDS011;4095;48.942;9.104;2023-02-01T09:24:29;9.97;;;3.20;;
8104;SDS011;4095;48.942;9.104;2023-02-01T09:26:55;11.10;;;3.17;;
8104;SDS011;4095;48.942;9.104;2023-02-01T09:29:21;9.87;;;3.40;;
8104;SDS011;4095;48.942;9.104;2023-02-01T09:31:46;10.20;;;3.83;;
8104;SDS011;4095;48.942;9.104;2023-02-01T09:34:12;10.53;;;3.33;;
8104;SDS011;4095;48.942;9.104;2023-02-01T09:36:38;10.63;;;3.53;;
8104;SDS011;4095;48.942;9.104;2023-02-01T09:39:03;13.30;;;3.30;;
8104;SDS011;4095;48.942;9.104;2023-02-01T09:41:35;9.33;;;3.50;;
8104;SDS011;4095;48.942;9.104;2023-02-01T09:46:40;14.40;;;3.60;;
8104;SDS011;4095;48.942;9.104;2023-02-01T09:49:16;11.83;;;3.53;;
8104;SDS011;4095;48.942;9.104;2023-02-01T09:51:46;11.87;;;3.67;;
8104;SDS011;4095;48.942;9.104;2023-02-01T09:56:49;15.10;;;3.80;;
8104;SDS011;4095;48.942;9.104;2023-02-01T09:59:43;11.40;;;3.63;;
8104;SDS011;4095;48.942;9.104;2023-02-01T10:02:17;10.70;;;3.33;;
8104;SDS011;4095;48.942;9.104;2023-02-01T10:04:52;11.47;;;3.50;;
8104;SDS011;4095;48.942;9.104;2023-02-01T10:10:03;8.63;;;3.20;;
8104;SDS011;4095;48.942;9.104;2023-02-01T10:18:04;12.27;;;3.80;;
8104;SDS011;4095;48.942;9.104;2023-02-01T10:20:49;7.33;;;3.07;;
8104;SDS011;4095;48.942;9.104;2023-02-01T10:23:50;11.60;;;3.77;;
8104;SDS011;4095;48.942;9.104;2023-02-01T10:26:51;10.90;;;3.37;;
8104;SDS011;4095;48.942;9.104;2023-02-01T10:29:37;7.43;;;3.13;;
8104;SDS011;4095;48.942;9.104;2023-02-01T10:32:10;12.20;;;3.33;;
8104;SDS011;4095;48.942;9.104;2023-02-01T10:35:39;9.50;;;3.50;;
8104;SDS011;4095;48.942;9.104;2023-02-01T10:38:08;9.43;;;3.30;;
8104;SDS011;4095;48.942;9.104;2023-02-01T10:40:52;10.70;;;3.17;;
8104;SDS011;4095;48.942;9.104;2023-02-01T10:43:20;11.93;;;3.60;;
8104;SDS011;4095;48.942;9.104;2023-02-01T10:45:46;10.03;;;3.67;;
8104;SDS011;4095;48.942;9.104;2023-02-01T10:48:12;8.30;;;3.10;;
8104;SDS011;4095;48.942;9.104;2023-02-01T10:50:44;15.27;;;3.50;;
8104;SDS011;4095;48.942;9.104;2023-02-01T10:53:20;11.70;;;3.23;;
8104;SDS011;4095;48.942;9.104;2023-02-01T10:55:54;12.63;;;3.60;;
8104;SDS011;4095;48.942;9.104;2023-02-01T10:58:25;8.63;;;3.60;;
8104;SDS011;4095;48.942;9.104;2023-02-01T11:01:05;10.90;;;3.53;;
8104;SDS011;4095;48.942;9.104;2023-02-01T11:05:58;10.27;;;3.17;;
8104;SDS011;4095;48.942;9.104;2023-02-01T11:08:24;10.97;;;3.73;;
8104;SDS011;4095;48.942;9.104;2023-02-01T11:10:57;7.83;;;3.17;;
8104;SDS011;4095;48.942;9.104;2023-02-01T11:16:30;9.70;;;3.20;;
8104;SDS011;4095;48.942;9.104;2023-02-01T11:18:59;12.03;;;3.23;;
8104;SDS011;4095;48.942;9.104;2023-02-01T11:21:25;8.73;;;3.37;;
8104;SDS011;4095;48.942;9.104;2023-02-01T11:23:51;11.03;;;3.20;;
8104;SDS011;4095;48.942;9.104;2023-02-01T11:29:21;9.67;;;3.30;;
8104;SDS011;4095;48.942;9.104;2023-02-01T11:31:44;8.63;;;3.03;;
8104;SDS011;4095;48.942;9.104;2023-02-01T11:34:17;11.37;;;3.60;;
8104;SDS011;4095;48.942;9.104;2023-02-01T11:36:46;8.57;;;3.20;;
8104;SDS011;4095;48.942;9.104;2023-02-01T11:44:40;8.83;;;2.97;;
8104;SDS011;4095;48.942;9.104;2023-02-01T11:50:05;8.80;;;3.30;;
8104;SDS011;4095;48.942;9.104;2023-02-01T11:53:09;10.43;;;3.03;;
8104;SDS011;4095;48.942;9.104;2023-02-01T11:55:39;8.47;;;3.07;;
8104;SDS011;4095;48.942;9.104;2023-02-01T12:19:59;9.40;;;3.20;;
8104;SDS011;4095;48.942;9.104;2023-02-01T12:36:23;10.40;;;2.97;;
8104;SDS011;4095;48.942;9.104;2023-02-01T12:41:55;13.47;;;3.83;;
8104;SDS011;4095;48.942;9.104;2023-02-01T12:52:46;14.00;;;3.30;;
8104;SDS011;4095;48.942;9.104;2023-02-01T12:55:24;11.47;;;2.93;;
8104;SDS011;4095;48.942;9.104;2023-02-01T13:01:11;12.40;;;3.10;;
8104;SDS011;4095;48.942;9.104;2023-02-01T13:06:47;16.40;;;4.43;;
8104;SDS011;4095;48.942;9.104;2023-02-01T13:12:19;11.67;;;3.30;;
8104;SDS011;4095;48.942;9.104;2023-02-01T13:15:00;9.00;;;3.00;;
8104;SDS011;4095;48.942;9.104;2023-02-01T13:17:42;10.37;;;2.97;;
8104;SDS011;4095;48.942;9.104;2023-02-01T13:25:39;8.57;;;3.20;;
8104;SDS011;4095;48.942;9.104;2023-02-01T13:31:17;12.53;;;3.97;;
8104;SDS011;4095;48.942;9.104;2023-02-01T13:44:39;7.47;;;2.67;;
8104;SDS011;4095;48.942;9.104;2023-02-01T13:50:26;9.03;;;3.10;;
8104;SDS011;4095;48.942;9.104;2023-02-01T13:52:53;12.80;;;3.73;;
8104;SDS011;4095;48.942;9.104;2023-02-01T13:55:26;6.30;;;3.00;;
8104;SDS011;4095;48.942;9.104;2023-02-01T13:58:00;12.03;;;3.97;;
8104;SDS011;4095;48.942;9.104;2023-02-01T14:00:35;8.33;;;3.00;;
8104;SDS011;4095;48.942;9.104;2023-02-01T14:11:07;12.53;;;3.53;;
8104;SDS011;4095;48.942;9.104;2023-02-01T14:13:57;11.90;;;3.20;;
8104;SDS011;4095;48.942;9.104;2023-02-01T14:19:25;14.93;;;3.70;;
8104;SDS011;4095;48.942;9.104;2023-02-01T14:21:54;8.57;;;3.20;;
8104;SDS011;4095;48.942;9.104;2023-02-01T14:26:54;11.83;;;3.93;;
8104;SDS011;4095;48.942;9.104;2023-02-01T14:29:26;10.90;;;3.60;;
8104;SDS011;4095;48.942;9.104;2023-02-01T14:32:06;11.47;;;3.27;;
8104;SDS011;4095;48.942;9.104;2023-02-01T14:47:52;8.50;;;3.10;;
8104;SDS011;4095;48.942;9.104;2023-02-01T14:55:41;12.30;;;3.57;;
8104;SDS011;4095;48.942;9.104;2023-02-01T14:58:18;7.60;;;2.93;;
8104;SDS011;4095;48.942;9.104;2023-02-01T15:01:15;8.90;;;2.60;;
8104;SDS011;4095;48.942;9.104;2023-02-01T15:06:38;13.77;;;4.00;;
8104;SDS011;4095;48.942;9.104;2023-02-01T15:09:27;8.57;;;3.13;;
8104;SDS011;4095;48.942;9.104;2023-02-01T15:14:34;11.87;;;3.50;;
8104;SDS011;4095;48.942;9.104;2023-02-01T15:17:20;10.67;;;3.37;;
8104;SDS011;4095;48.942;9.104;2023-02-01T15:22:20;9.43;;;3.43;;
8104;SDS011;4095;48.942;9.104;2023-02-01T15:24:51;9.97;;;3.87;;
8104;SDS011;4095;48.942;9.104;2023-02-01T15:27:19;9.50;;;2.90;;
8104;SDS011;4095;48.942;9.104;2023-02-01T15:29:44;9.77;;;3.23;;
8104;SDS011;4095;48.942;9.104;2023-02-01T15:35:03;11.77;;;3.80;;
8104;SDS011;4095;48.942;9.104;2023-02-01T15:37:30;12.20;;;3.77;;
8104;SDS011;4095;48.942;9.104;2023-02-01T15:40:19;9.73;;;3.40;;
8104;SDS011;4095;48.942;9.104;2023-02-01T15:42:49;10.93;;;3.70;;
8104;SDS011;4095;48.942;9.104;2023-02-01T15:45:27;9.90;;;3.37;;
8104;SDS011;4095;48.942;9.104;2023-02-01T15:47:57;11.37;;;3.40;;
8104;SDS011;4095;48.942;9.104;2023-02-01T15:50:23;9.30;;;3.93;;
8104;SDS011;4095;48.942;9.104;2023-02-01T15:52:50;13.10;;;4.23;;
8104;SDS011;4095;48.942;9.104;2023-02-01T15:58:07;9.83;;;3.50;;
8104;SDS011;4095;48.942;9.104;2023-02-01T16:00:44;10.33;;;3.40;;
8104;SDS011;4095;48.942;9.104;2023-02-01T16:03:24;8.03;;;3.40;;
8104;SDS011;4095;48.942;9.104;2023-02-01T16:08:36;9.60;;;3.50;;
8104;SDS011;4095;48.942;9.104;2023-02-01T16:28:29;11.63;;;3.53;;
8104;SDS011;4095;48.942;9.104;2023-02-01T16:34:28;13.83;;;3.43;;
8104;SDS011;4095;48.942;9.104;2023-02-01T16:40:23;13.27;;;3.90;;
8104;SDS011;4095;48.942;9.104;2023-02-01T16:42:51;7.80;;;2.90;;
8104;SDS011;4095;48.942;9.104;2023-02-01T16:45:59;9.93;;;3.50;;
8104;SDS011;4095;48.942;9.104;2023-02-01T16:48:56;11.93;;;3.53;;
8104;SDS011;4095;48.942;9.104;2023-02-01T16:51:44;12.47;;;3.80;;
8104;SDS011;4095;48.942;9.104;2023-02-01T16:58:24;9.67;;;3.13;;
8104;SDS011;4095;48.942;9.104;2023-02-01T17:01:01;10.00;;;3.63;;
8104;SDS011;4095;48.942;9.104;2023-02-01T17:03:45;10.20;;;3.30;;
8104;SDS011;4095;48.942;9.104;2023-02-01T17:07:00;11.23;;;3.77;;
8104;SDS011;4095;48.942;9.104;2023-02-01T17:10:05;16.13;;;4.37;;
8104;SDS011;4095;48.942;9.104;2023-02-01T17:19:49;10.97;;;4.20;;
8104;SDS011;4095;48.942;9.104;2023-02-01T17:22:20;9.07;;;3.70;;
8104;SDS011;4095;48.942;9.104;2023-02-01T17:24:47;8.17;;;3.57;;
8104;SDS011;4095;48.942;9.104;2023-02-01T17:27:13;12.07;;;4.13;;
8104;SDS011;4095;48.942;9.104;2023-02-01T17:29:39;12.47;;;4.20;;
8104;SDS011;4095;48.942;9.104;2023-02-01T17:32:06;11.47;;;3.73;;
8104;SDS011;4095;48.942;9.104;2023-02-01T17:41:22;14.80;;;3.70;;
8104;SDS011;4095;48.942;9.104;2023-02-01T17:43:51;15.30;;;4.23;;
8104;SDS011;4095;48.942;9.104;2023-02-01T17:49:44;9.30;;;3.37;;
8104;SDS011;4095;48.942;9.104;2023-02-01T17:52:36;12.10;;;4.07;;
8104;SDS011;4095;48.942;9.104;2023-02-01T17:55:05;10.00;;;3.73;;
8104;SDS011;4095;48.942;9.104;2023-02-01T17:58:10;7.80;;;3.40;;
8104;SDS011;4095;48.942;9.104;2023-02-01T18:04:19;11.00;;;3.07;;
8104;SDS011;4095;48.942;9.104;2023-02-01T18:07:15;6.73;;;2.87;;
8104;SDS011;4095;48.942;9.104;2023-02-01T18:09:50;13.07;;;3.70;;
8104;SDS011;4095;48.942;9.104;2023-02-01T18:12:20;10.80;;;3.30;;
8104;SDS011;4095;48.942;9.104;2023-02-01T18:14:47;10.07;;;3.60;;
8104;SDS011;4095;48.942;9.104;2023-02-01T18:17:13;11.53;;;3.77;;
8104;SDS011;4095;48.942;9.104;2023-02-01T18:19:39;10.53;;;3.10;;
8104;SDS011;4095;48.942;9.104;2023-02-01T18:22:05;7.80;;;3.00;;
8104;SDS011;4095;48.942;9.104;2023-02-01T18:24:34;10.13;;;3.20;;
8104;SDS011;4095;48.942;9.104;2023-02-01T18:27:01;9.73;;;3.37;;
8104;SDS011;4095;48.942;9.104;2023-02-01T18:29:27;8.90;;;3.00;;
8104;SDS011;4095;48.942;9.104;2023-02-01T18:31:52;11.93;;;3.17;;
8104;SDS011;4095;48.942;9.104;2023-02-01T18:34:22;10.90;;;3.70;;
8104;SDS011;4095;48.942;9.104;2023-02-01T18:36:49;14.47;;;3.33;;
8104;SDS011;4095;48.942;9.104;2023-02-01T18:39:15;10.33;;;3.73;;
8104;SDS011;4095;48.942;9.104;2023-02-01T18:41:43;10.63;;;3.27;;
8104;SDS011;4095;48.942;9.104;2023-02-01T18:44:12;8.80;;;3.13;;
8104;SDS011;4095;48.942;9.104;2023-02-01T18:46:39;11.07;;;3.03;;
8104;SDS011;4095;48.942;9.104;2023-02-01T18:49:05;10.17;;;3.30;;
8104;SDS011;4095;48.942;9.104;2023-02-01T18:51:32;11.27;;;3.37;;
8104;SDS011;4095;48.942;9.104;2023-02-01T18:53:58;9.13;;;3.43;;
8104;SDS011;4095;48.942;9.104;2023-02-01T18:56:23;11.23;;;3.33;;
8104;SDS011;4095;48.942;9.104;2023-02-01T18:58:49;11.90;;;3.30;;
8104;SDS011;4095;48.942;9.104;2023-02-01T19:01:16;12.07;;;3.43;;
8104;SDS011;4095;48.942;9.104;2023-02-01T19:03:45;9.27;;;2.50;;
8104;SDS011;4095;48.942;9.104;2023-02-01T19:06:11;11.57;;;3.33;;
8104;SDS011;4095;48.942;9.104;2023-02-01T19:08:36;12.67;;;3.80;;
8104;SDS011;4095;48.942;9.104;2023-02-01T19:11:06;14.07;;;3.97;;
8104;SDS011;4095;48.942;9.104;2023-02-01T19:13:35;11.83;;;3.23;;
8104;SDS011;4095;48.942;9.104;2023-02-01T19:16:05;10.63;;;2.83;;
8104;SDS011;4095;48.942;9.104;2023-02-01T19:18:32;13.10;;;3.40;;
8104;SDS011;4095;48.942;9.104;2023-02-01T19:21:02;7.80;;;3.40;;
8104;SDS011;4095;48.942;9.104;2023-02-01T19:23:28;12.70;;;3.50;;
8104;SDS011;4095;48.942;9.104;2023-02-01T19:25:54;11.10;;;3.63;;
8104;SDS011;4095;48.942;9.104;2023-02-01T19:28:20;8.27;;;3.03;;
8104;SDS011;4095;48.942;9.104;2023-02-01T19:30:45;10.83;;;3.40;;
8104;SDS011;4095;48.942;9.104;2023-02-01T19:33:11;9.20;;;3.00;;
8104;SDS011;4095;48.942;9.104;2023-02-01T19:35:37;9.83;;;3.27;;